バンコク/スワンナプーム の空港の天気 - METARとTAF

スワンナプーム国際空港 ( VTBS / BKK ) - タイ サムットプラーカーン県 (バンコク近郊)
飛行場実況気象(Metar)
観測時間05/21 06:00 ICT (05/20 23:00 UTC)
風向・風速南 3m/s
視程9000m
天気現象
少しの雲 雲底高度 610m
気温30℃
湿度75%
気圧1008hPa
METARVTBS 202300Z 17005KT 140V200 9000 FEW020 30/25 Q1008 NOSIG
過去の天気等 Google飛行場航空写真 Wunderground天気予報

過去48時間のMETAR

飛行場予報(TAF)
発表時間: 5/21 00:00 ICT (5/20 17:00 UTC)
予報対象時間: 21日1時 ICT ~ 22日7時 ICT
風向・風速南南西 4m/s
視程10km以上
少しの雲 雲底高度 610m
21日5時 ICT ~ 21日7時 ICT に徐々に
風向・風速東南東 3m/s
21日11時 ICT ~ 21日13時 ICT に徐々に
風向・風速南南西 5m/s
21日15時 ICT ~ 21日19時 ICT に一時的に
風向・風速南 5m/s 瞬間風速 10m/s
視程6000m
天気現象弱い雷雨
少しの積乱雲 雲底高度 550m
全天の4割程度の雲 雲底高度 910m
全天の8割程度の雲 雲底高度 3050m
TAF VTBS 201700Z 2018/2124 20008KT 9999 FEW020
BECMG 2022/2024 12005KT
BECMG 2104/2106 20010KT
TEMPO 2108/2112 19010G20KT 6000 -TSRA FEW018CB SCT030 BKN100